Time;durP1;ratioP1;P1;durP2;ratioP2;P2;SDS_P1;SDS_P2;PMS_P1;PMS_P2;Temp;Humidity;BMP_temperature;BMP_pressure;BME280_temperature;BME280_humidity;BME280_pressure;Samples;Min_cycle;Max_cycle;Signal;HPM_P1;HPM_P2
2023/06/22 00:02:13;;;;;;;;;;;18.80;99.90;;;;;;5114289;28;19957;-74
2023/06/22 00:04:39;;;;;;;;;;;18.80;99.90;;;;;;5114422;28;19912;-75
2023/06/22 00:07:04;;;;;;;;;;;18.80;99.90;;;;;;5114540;28;20408;-75
2023/06/22 00:09:30;;;;;;;;;;;18.90;99.90;;;;;;5114252;28;19912;-75
2023/06/22 00:11:56;;;;;;;;;;;18.90;99.90;;;;;;5114191;28;19907;-75
2023/06/22 00:14:22;;;;;;;;;;;18.90;99.90;;;;;;5113896;28;19919;-75
2023/06/22 00:16:48;;;;;;;;;;;18.90;99.90;;;;;;5114135;28;19958;-75
2023/06/22 00:19:15;;;;;;;;;;;18.90;99.90;;;;;;5112816;28;20396;-74
2023/06/22 00:21:40;;;;;;;;;;;18.90;99.90;;;;;;5114109;28;19972;-75
2023/06/22 00:24:06;;;;;;;;;;;18.90;99.90;;;;;;5114350;28;20369;-74
2023/06/22 00:26:32;;;;;;;;;;;18.80;99.90;;;;;;5114296;28;19919;-75
2023/06/22 00:28:57;;;;;;;;;;;18.80;99.90;;;;;;5114575;28;19912;-75
2023/06/22 00:31:23;;;;;;;;;;;18.70;99.90;;;;;;5114026;28;19911;-75
2023/06/22 00:33:50;;;;;;;;;;;18.60;99.90;;;;;;5114086;28;19926;-75
2023/06/22 00:36:17;;;;;;;;;;;18.60;99.90;;;;;;5113966;28;20262;-75
2023/06/22 00:38:43;;;;;;;;;;;18.60;99.90;;;;;;5114238;28;20300;-74
2023/06/22 00:41:09;;;;;;;;;;;18.50;99.90;;;;;;5114776;28;19918;-74
2023/06/22 00:43:34;;;;;;;;;;;18.40;99.90;;;;;;5112583;28;19912;-74
2023/06/22 00:46:00;;;;;;;;;;;18.30;99.90;;;;;;5115032;28;19912;-74
2023/06/22 00:48:25;;;;;;;;;;;18.30;99.90;;;;;;5118196;28;19912;-74
2023/06/22 00:50:53;;;;;;;;;;;18.20;99.90;;;;;;5117815;28;19918;-75
2023/06/22 00:53:19;;;;;;;;;;;18.30;99.90;;;;;;5117973;28;19915;-75
2023/06/22 00:55:51;;;;;;;;;;;18.20;99.90;;;;;;5117769;28;19915;-75
2023/06/22 00:58:17;;;;;;;;;;;18.10;99.90;;;;;;5118301;28;19947;-75
2023/06/22 01:00:42;;;;;;;;;;;18.00;99.90;;;;;;5118265;28;19916;-75
2023/06/22 01:03:08;;;;;;;;;;;17.90;99.90;;;;;;5117594;28;19912;-75
2023/06/22 01:05:34;;;;;;;;;;;17.90;99.90;;;;;;5117446;28;19908;-75
2023/06/22 01:08:18;;;;;;;;;;;17.80;99.90;;;;;;5117503;27;20399;-75
2023/06/22 01:10:47;;;;;;;;;;;17.80;99.90;;;;;;5117451;28;19995;-75
2023/06/22 01:13:25;;;;;;;;;;;17.80;99.90;;;;;;5117265;28;19922;-75
2023/06/22 01:15:56;;;;;;;;;;;17.80;99.90;;;;;;5117686;27;19982;-75
2023/06/22 01:18:25;;;;;;;;;;;17.80;99.90;;;;;;5117661;28;19915;-75
2023/06/22 01:20:52;;;;;;;;;;;17.80;99.90;;;;;;5117276;28;20362;-75
2023/06/22 01:23:28;;;;;;;;;;;17.90;99.90;;;;;;5117417;28;19908;-75
2023/06/22 01:25:59;;;;;;;;;;;17.90;99.90;;;;;;5117198;28;19908;-75
2023/06/22 01:28:43;;;;;;;;;;;17.90;99.90;;;;;;5117418;28;19907;-75
2023/06/22 01:31:10;;;;;;;;;;;17.90;99.90;;;;;;5117249;28;19993;-75
2023/06/22 01:33:37;;;;;;;;;;;18.00;99.90;;;;;;5117296;28;20042;-75
2023/06/22 01:36:04;;;;;;;;;;;18.00;99.90;;;;;;5117208;28;19907;-75
2023/06/22 01:38:30;;;;;;;;;;;18.00;99.90;;;;;;5115620;28;19912;-75
2023/06/22 01:40:56;;;;;;;;;;;18.00;99.90;;;;;;5115617;28;19908;-75
2023/06/22 01:43:23;;;;;;;;;;;17.90;99.90;;;;;;5116745;28;19908;-75
2023/06/22 01:45:50;;;;;;;;;;;17.80;99.90;;;;;;5117089;28;19999;-75
2023/06/22 01:48:15;;;;;;;;;;;17.80;99.90;;;;;;5117253;28;20342;-74
2023/06/22 01:50:41;;;;;;;;;;;17.80;99.90;;;;;;5116915;28;19914;-75
2023/06/22 01:53:07;;;;;;;;;;;17.80;99.90;;;;;;5116473;28;19915;-75
2023/06/22 01:55:32;;;;;;;;;;;17.70;99.90;;;;;;5116501;27;19919;-75
2023/06/22 01:57:58;;;;;;;;;;;17.80;99.90;;;;;;5116151;28;19919;-75
2023/06/22 02:00:25;;;;;;;;;;;17.70;99.90;;;;;;5116691;28;19912;-75
2023/06/22 02:02:56;;;;;;;;;;;17.70;99.90;;;;;;5116535;28;19933;-75
2023/06/22 02:05:23;;;;;;;;;;;17.80;99.90;;;;;;5116538;28;19907;-75
2023/06/22 02:07:55;;;;;;;;;;;17.80;99.90;;;;;;5116348;28;19912;-75
2023/06/22 02:10:21;;;;;;;;;;;17.70;99.90;;;;;;5116314;28;19914;-75
2023/06/22 02:12:47;;;;;;;;;;;17.70;99.90;;;;;;5116292;27;20384;-75
2023/06/22 02:15:14;;;;;;;;;;;17.70;99.90;;;;;;5116062;28;19916;-75
2023/06/22 02:17:44;;;;;;;;;;;17.60;99.90;;;;;;5116134;28;20007;-75
2023/06/22 02:20:14;;;;;;;;;;;17.50;99.90;;;;;;5116403;28;20363;-75
2023/06/22 02:22:39;;;;;;;;;;;17.50;99.90;;;;;;5116848;28;19923;-74
2023/06/22 02:25:05;;;;;;;;;;;17.40;99.90;;;;;;5115926;28;19912;-75
2023/06/22 02:27:30;;;;;;;;;;;17.30;99.90;;;;;;5116048;28;20407;-75
2023/06/22 02:29:56;;;;;;;;;;;17.30;99.90;;;;;;5115908;28;19912;-75
2023/06/22 02:32:22;;;;;;;;;;;17.30;99.90;;;;;;5116397;28;19999;-75
2023/06/22 02:34:47;;;;;;;;;;;17.30;99.90;;;;;;5115962;28;19955;-75
2023/06/22 02:37:14;;;;;;;;;;;17.20;99.90;;;;;;5115707;28;19912;-75
2023/06/22 02:39:40;;;;;;;;;;;17.20;99.90;;;;;;5115985;28;19954;-76
2023/06/22 02:42:06;;;;;;;;;;;17.20;99.90;;;;;;5116039;28;19912;-75
2023/06/22 02:44:31;;;;;;;;;;;17.20;99.90;;;;;;5114262;28;19915;-75
2023/06/22 02:46:57;;;;;;;;;;;17.20;99.90;;;;;;5115583;28;19919;-75
2023/06/22 02:49:23;;;;;;;;;;;17.30;99.90;;;;;;5115835;28;19912;-75
2023/06/22 02:51:48;;;;;;;;;;;17.20;99.90;;;;;;5115568;28;19919;-75
2023/06/22 02:54:14;;;;;;;;;;;17.20;99.90;;;;;;5115433;28;19997;-75
2023/06/22 02:56:40;;;;;;;;;;;17.20;99.90;;;;;;5115450;28;19908;-75
2023/06/22 02:59:06;;;;;;;;;;;17.10;99.90;;;;;;5115423;28;19919;-76
2023/06/22 03:01:37;;;;;;;;;;;16.90;99.90;;;;;;5115322;28;19911;-75
2023/06/22 03:04:03;;;;;;;;;;;16.80;99.90;;;;;;5113961;28;19995;-75
2023/06/22 03:06:29;;;;;;;;;;;16.70;99.90;;;;;;5115436;28;20363;-76
2023/06/22 03:08:59;;;;;;;;;;;16.60;99.90;;;;;;5114726;28;19912;-76
2023/06/22 03:11:25;;;;;;;;;;;16.50;99.90;;;;;;5113871;28;19907;-76
2023/06/22 03:13:52;;;;;;;;;;;16.60;99.90;;;;;;5115017;28;20273;-76
2023/06/22 03:16:17;;;;;;;;;;;16.60;99.90;;;;;;5115027;28;19918;-75
2023/06/22 03:18:43;;;;;;;;;;;16.60;99.90;;;;;;5115473;28;20357;-75
2023/06/22 03:21:08;;;;;;;;;;;16.60;99.90;;;;;;5114961;28;19923;-75
2023/06/22 03:23:34;;;;;;;;;;;16.50;99.90;;;;;;5114772;28;19979;-75
2023/06/22 03:26:01;;;;;;;;;;;16.50;99.90;;;;;;5113465;28;20390;-75
2023/06/22 03:28:26;;;;;;;;;;;16.60;99.90;;;;;;5114767;28;19908;-75
2023/06/22 03:30:52;;;;;;;;;;;16.60;99.90;;;;;;5114666;28;19912;-75
2023/06/22 03:33:17;;;;;;;;;;;16.60;99.90;;;;;;5114639;28;19912;-76
2023/06/22 03:35:43;;;;;;;;;;;16.70;99.90;;;;;;5115440;28;19953;-76
2023/06/22 03:38:08;;;;;;;;;;;16.70;99.90;;;;;;5114867;28;19930;-75
2023/06/22 03:40:34;;;;;;;;;;;16.70;99.90;;;;;;5114498;28;19912;-75
2023/06/22 03:42:59;;;;;;;;;;;16.70;99.90;;;;;;5114429;28;20335;-75
2023/06/22 03:45:25;;;;;;;;;;;16.70;99.90;;;;;;5114234;28;19912;-75
2023/06/22 03:47:50;;;;;;;;;;;16.70;99.90;;;;;;5114315;28;19912;-74
2023/06/22 03:50:16;;;;;;;;;;;16.70;99.90;;;;;;5114400;28;19961;-75
2023/06/22 03:52:41;;;;;;;;;;;16.70;99.90;;;;;;5114378;28;19960;-75
2023/06/22 03:55:07;;;;;;;;;;;16.70;99.90;;;;;;5114185;28;19923;-75
2023/06/22 03:57:33;;;;;;;;;;;16.80;99.90;;;;;;5114323;28;19990;-76
2023/06/22 03:59:59;;;;;;;;;;;16.70;99.90;;;;;;5113871;28;19956;-75
2023/06/22 04:02:25;;;;;;;;;;;16.70;99.90;;;;;;5112223;28;19972;-75
2023/06/22 04:04:51;;;;;;;;;;;16.70;99.90;;;;;;5114388;28;19908;-75
2023/06/22 04:07:17;;;;;;;;;;;16.70;99.90;;;;;;5114167;28;19908;-75
2023/06/22 04:09:43;;;;;;;;;;;16.70;99.90;;;;;;5114212;28;19912;-75
2023/06/22 04:12:09;;;;;;;;;;;16.60;99.90;;;;;;5114261;28;20427;-75
2023/06/22 04:14:34;;;;;;;;;;;16.60;99.90;;;;;;5114385;28;20304;-75
2023/06/22 04:17:01;;;;;;;;;;;16.70;99.90;;;;;;5114194;28;19912;-76
2023/06/22 04:19:27;;;;;;;;;;;16.70;99.90;;;;;;5114319;28;19957;-76
2023/06/22 04:21:52;;;;;;;;;;;16.80;99.90;;;;;;5118551;28;19912;-76
2023/06/22 04:24:18;;;;;;;;;;;16.80;99.90;;;;;;5118211;28;19997;-75
2023/06/22 04:26:45;;;;;;;;;;;16.80;99.90;;;;;;5118613;28;19919;-75
2023/06/22 04:29:10;;;;;;;;;;;16.90;99.90;;;;;;5117819;28;19907;-74
2023/06/22 04:31:36;;;;;;;;;;;16.90;99.90;;;;;;5117521;28;20234;-75
2023/06/22 04:34:08;;;;;;;;;;;16.90;99.90;;;;;;5116822;28;19911;-75
2023/06/22 04:36:39;;;;;;;;;;;16.90;99.90;;;;;;5116963;28;19903;-75
2023/06/22 04:39:05;;;;;;;;;;;16.90;99.90;;;;;;5117011;28;19911;-74
2023/06/22 04:41:41;;;;;;;;;;;17.00;99.90;;;;;;5116897;28;19965;-75
2023/06/22 04:44:08;;;;;;;;;;;17.00;99.90;;;;;;5116343;28;20361;-74
2023/06/22 04:46:37;;;;;;;;;;;16.90;99.90;;;;;;5116567;27;20254;-74
2023/06/22 04:49:09;;;;;;;;;;;16.80;99.90;;;;;;5116448;28;20325;-73
2023/06/22 04:51:44;;;;;;;;;;;16.80;99.90;;;;;;5115295;28;19911;-74
2023/06/22 04:54:09;;;;;;;;;;;16.70;99.90;;;;;;5095701;28;19969;-73
2023/06/22 04:56:35;;;;;;;;;;;16.80;99.90;;;;;;5093776;28;24063;-74
2023/06/22 04:59:02;;;;;;;;;;;16.80;99.90;;;;;;5094695;28;24088;-74
2023/06/22 05:01:28;;;;;;;;;;;16.90;99.90;;;;;;5096017;28;19908;-74
2023/06/22 05:03:55;;;;;;;;;;;16.90;99.90;;;;;;5094453;28;19953;-74
2023/06/22 05:06:21;;;;;;;;;;;17.00;99.90;;;;;;5095009;28;20319;-74
2023/06/22 05:08:47;;;;;;;;;;;17.00;99.90;;;;;;5095476;28;20023;-74
2023/06/22 05:11:12;;;;;;;;;;;17.10;99.90;;;;;;5095559;28;24162;-74
2023/06/22 05:13:38;;;;;;;;;;;17.10;99.90;;;;;;5095533;28;19938;-74
2023/06/22 05:16:05;;;;;;;;;;;17.20;99.90;;;;;;5095612;28;20289;-74
2023/06/22 05:18:31;;;;;;;;;;;17.20;99.90;;;;;;5095868;28;20365;-74
2023/06/22 05:20:58;;;;;;;;;;;17.30;99.90;;;;;;5095659;28;19992;-74
2023/06/22 05:23:23;;;;;;;;;;;17.40;99.90;;;;;;5095842;28;24059;-74
2023/06/22 05:25:49;;;;;;;;;;;17.40;99.90;;;;;;5095758;28;19919;-74
2023/06/22 05:28:14;;;;;;;;;;;17.50;99.90;;;;;;5095568;28;19908;-74
2023/06/22 05:30:41;;;;;;;;;;;17.50;99.90;;;;;;5095997;28;20316;-74
2023/06/22 05:33:06;;;;;;;;;;;17.60;99.90;;;;;;5094666;28;20033;-74
2023/06/22 05:35:32;;;;;;;;;;;17.70;99.90;;;;;;5095380;28;20022;-74
2023/06/22 05:37:57;;;;;;;;;;;17.70;99.90;;;;;;5095329;28;20441;-74
2023/06/22 05:40:23;;;;;;;;;;;17.70;99.90;;;;;;5095204;28;19908;-74
2023/06/22 05:42:48;;;;;;;;;;;17.80;99.90;;;;;;5095265;28;20365;-74
2023/06/22 05:45:14;;;;;;;;;;;17.80;99.90;;;;;;5094895;28;20358;-73
2023/06/22 05:47:39;;;;;;;;;;;17.90;99.90;;;;;;5094999;28;19908;-74
2023/06/22 05:50:08;;;;;;;;;;;18.00;99.90;;;;;;5095084;28;20302;-73
2023/06/22 05:52:33;;;;;;;;;;;18.10;99.90;;;;;;5095149;28;20277;-72
2023/06/22 05:54:59;;;;;;;;;;;18.20;99.90;;;;;;5094485;28;20037;-73
2023/06/22 05:57:24;;;;;;;;;;;18.30;99.90;;;;;;5095140;28;20028;-73
2023/06/22 05:59:50;;;;;;;;;;;18.40;99.90;;;;;;5094571;28;20065;-73
2023/06/22 06:02:15;;;;;;;;;;;18.50;99.90;;;;;;5094989;28;20044;-73
2023/06/22 06:04:41;;;;;;;;;;;18.60;99.90;;;;;;5094609;28;20119;-73
2023/06/22 06:07:07;;;;;;;;;;;18.60;99.90;;;;;;5093513;28;20042;-74
2023/06/22 06:09:32;;;;;;;;;;;18.70;99.90;;;;;;5093443;28;20105;-74
2023/06/22 06:11:58;;;;;;;;;;;18.70;99.90;;;;;;5093373;28;20104;-74
2023/06/22 06:14:23;;;;;;;;;;;18.80;99.90;;;;;;5092221;28;20448;-74
2023/06/22 06:16:49;;;;;;;;;;;18.90;99.90;;;;;;5092451;28;19934;-75
2023/06/22 06:19:14;;;;;;;;;;;18.90;99.90;;;;;;5093158;28;20045;-74
2023/06/22 06:21:40;;;;;;;;;;;19.00;99.90;;;;;;5094046;28;20035;-74
2023/06/22 06:24:06;;;;;;;;;;;19.00;99.90;;;;;;5094738;28;19912;-74
2023/06/22 06:26:32;;;;;;;;;;;19.10;99.90;;;;;;5094496;28;20104;-74
2023/06/22 06:29:00;;;;;;;;;;;19.10;99.90;;;;;;5094226;28;19908;-75
2023/06/22 06:31:29;;;;;;;;;;;19.30;99.90;;;;;;5094278;28;20038;-74
2023/06/22 06:33:54;;;;;;;;;;;19.30;99.90;;;;;;5092698;28;20044;-75
2023/06/22 06:36:20;;;;;;;;;;;19.40;99.90;;;;;;5092670;28;20043;-75
2023/06/22 06:38:47;;;;;;;;;;;19.50;99.90;;;;;;5075907;28;19915;-74
2023/06/22 06:41:13;;;;;;;;;;;19.60;99.90;;;;;;5094127;28;20112;-75
2023/06/22 06:43:38;;;;;;;;;;;19.70;99.90;;;;;;5093138;28;20035;-75
2023/06/22 06:46:04;;;;;;;;;;;19.70;99.90;;;;;;5094293;28;20429;-75
2023/06/22 06:48:30;;;;;;;;;;;19.80;99.90;;;;;;5093806;28;19915;-75
2023/06/22 06:50:55;;;;;;;;;;;19.90;99.90;;;;;;5093743;28;20057;-74
2023/06/22 06:53:21;;;;;;;;;;;20.00;99.90;;;;;;5093802;28;20048;-75
2023/06/22 06:55:46;;;;;;;;;;;20.00;99.90;;;;;;5093727;28;20116;-75
2023/06/22 06:58:13;;;;;;;;;;;20.10;99.90;;;;;;5093519;28;20029;-74
2023/06/22 07:00:39;;;;;;;;;;;20.20;99.90;;;;;;5093573;28;20047;-75
2023/06/22 07:03:04;;;;;;;;;;;20.30;99.90;;;;;;5093579;28;19982;-75
2023/06/22 07:05:30;;;;;;;;;;;20.40;99.90;;;;;;5093367;28;19908;-74
2023/06/22 07:07:55;;;;;;;;;;;20.50;99.90;;;;;;5093291;28;20038;-75
2023/06/22 07:10:21;;;;;;;;;;;20.70;99.90;;;;;;5093454;28;19908;-74
2023/06/22 07:12:46;;;;;;;;;;;20.80;99.90;;;;;;5093882;28;19954;-75
2023/06/22 07:15:14;;;;;;;;;;;20.90;99.90;;;;;;5093138;28;19952;-75
2023/06/22 07:17:42;;;;;;;;;;;21.00;99.90;;;;;;5093292;28;24075;-73
2023/06/22 07:20:10;;;;;;;;;;;21.10;99.90;;;;;;5093370;28;19904;-73
2023/06/22 07:22:36;;;;;;;;;;;21.30;99.90;;;;;;5091653;28;19915;-73
2023/06/22 07:25:05;;;;;;;;;;;21.40;99.90;;;;;;5092759;28;19908;-73
2023/06/22 07:27:35;;;;;;;;;;;21.50;99.90;;;;;;5092855;28;19908;-73
2023/06/22 07:30:01;;;;;;;;;;;21.60;99.90;;;;;;5093043;28;19908;-73
2023/06/22 07:32:28;;;;;;;;;;;21.80;99.90;;;;;;5092846;28;24083;-73
2023/06/22 07:34:53;;;;;;;;;;;21.90;99.90;;;;;;5092678;28;19919;-73
2023/06/22 07:37:19;;;;;;;;;;;21.90;99.90;;;;;;5093384;28;19908;-72
2023/06/22 07:39:44;;;;;;;;;;;22.10;99.90;;;;;;5093546;28;19947;-73
2023/06/22 07:42:10;;;;;;;;;;;22.20;99.90;;;;;;5093016;28;19953;-73
2023/06/22 07:44:36;;;;;;;;;;;22.40;99.90;;;;;;5092107;28;19943;-73
2023/06/22 07:47:01;;;;;;;;;;;22.50;99.90;;;;;;5092628;28;19904;-73
2023/06/22 07:49:27;;;;;;;;;;;22.60;99.90;;;;;;5094081;28;20285;-73
2023/06/22 07:51:53;;;;;;;;;;;22.70;99.90;;;;;;5094115;28;19939;-73
2023/06/22 07:54:18;;;;;;;;;;;22.80;99.90;;;;;;5093780;28;20111;-73
2023/06/22 07:56:45;;;;;;;;;;;22.90;99.90;;;;;;5093970;28;19908;-73
2023/06/22 07:59:11;;;;;;;;;;;23.00;99.90;;;;;;5094000;28;19953;-73
2023/06/22 08:01:36;;;;;;;;;;;23.10;99.90;;;;;;5093865;28;19912;-73
2023/06/22 08:04:02;;;;;;;;;;;23.30;99.90;;;;;;5093781;28;19915;-73
2023/06/22 08:06:29;;;;;;;;;;;23.40;99.90;;;;;;5093897;28;19916;-73
2023/06/22 08:08:56;;;;;;;;;;;23.50;99.90;;;;;;5093823;28;19911;-73
2023/06/22 08:11:23;;;;;;;;;;;23.60;99.90;;;;;;5093752;28;19908;-73
2023/06/22 08:13:49;;;;;;;;;;;23.70;99.90;;;;;;5093574;28;19916;-73
2023/06/22 08:16:16;;;;;;;;;;;23.90;99.90;;;;;;5093251;28;20308;-73
2023/06/22 08:18:43;;;;;;;;;;;24.00;99.90;;;;;;5094076;28;19916;-73
2023/06/22 08:21:08;;;;;;;;;;;24.10;99.90;;;;;;5093671;28;20357;-73
2023/06/22 08:23:34;;;;;;;;;;;24.20;99.90;;;;;;5093720;28;19916;-73
2023/06/22 08:26:00;;;;;;;;;;;24.30;99.90;;;;;;5093829;28;19912;-73
2023/06/22 08:28:25;;;;;;;;;;;24.40;99.90;;;;;;5093587;28;19962;-73
2023/06/22 08:30:51;;;;;;;;;;;24.50;99.90;;;;;;5093562;28;19958;-73
2023/06/22 08:33:17;;;;;;;;;;;24.70;99.90;;;;;;5093934;28;19918;-72
2023/06/22 08:35:43;;;;;;;;;;;24.70;99.90;;;;;;5093744;28;19916;-72
2023/06/22 08:38:09;;;;;;;;;;;24.80;99.90;;;;;;5093572;28;20432;-72
2023/06/22 08:40:34;;;;;;;;;;;25.00;99.90;;;;;;5093848;28;19944;-72
2023/06/22 08:43:00;;;;;;;;;;;25.20;99.90;;;;;;5093554;28;20285;-72
2023/06/22 08:45:25;;;;;;;;;;;25.20;99.90;;;;;;5093396;28;19961;-72
2023/06/22 08:47:51;;;;;;;;;;;25.30;99.90;;;;;;5093713;28;20354;-72
2023/06/22 08:50:17;;;;;;;;;;;25.40;99.90;;;;;;5093357;28;19912;-72
2023/06/22 08:52:42;;;;;;;;;;;25.60;99.90;;;;;;5093380;28;20255;-72
2023/06/22 08:55:09;;;;;;;;;;;25.60;99.90;;;;;;5093828;28;19939;-72
2023/06/22 08:57:37;;;;;;;;;;;25.80;99.90;;;;;;5093303;28;19908;-72
2023/06/22 09:00:04;;;;;;;;;;;25.90;99.90;;;;;;5093312;28;19987;-72
2023/06/22 09:02:31;;;;;;;;;;;26.00;99.90;;;;;;5093304;28;19920;-72
2023/06/22 09:04:57;;;;;;;;;;;26.10;99.90;;;;;;5093569;28;19909;-72
2023/06/22 09:07:24;;;;;;;;;;;26.20;99.90;;;;;;5094847;28;19954;-72
2023/06/22 09:09:50;;;;;;;;;;;26.30;99.90;;;;;;5097007;28;19966;-72
2023/06/22 09:12:16;;;;;;;;;;;26.40;99.90;;;;;;5096987;28;19912;-72
2023/06/22 09:14:42;;;;;;;;;;;26.60;99.90;;;;;;5096634;28;19966;-72
2023/06/22 09:17:07;;;;;;;;;;;26.70;99.90;;;;;;5096925;28;20366;-72
2023/06/22 09:19:33;;;;;;;;;;;26.80;99.90;;;;;;5095483;28;19962;-72
2023/06/22 09:21:59;;;;;;;;;;;27.00;99.90;;;;;;5097013;28;20026;-72
2023/06/22 09:24:24;;;;;;;;;;;27.10;99.90;;;;;;5096643;28;20384;-72
2023/06/22 09:26:50;;;;;;;;;;;27.30;99.90;;;;;;5096773;28;19912;-72
2023/06/22 09:29:16;;;;;;;;;;;27.40;99.90;;;;;;5096979;28;19951;-72
2023/06/22 09:31:41;;;;;;;;;;;27.40;99.90;;;;;;5095243;28;19912;-72
2023/06/22 09:34:07;;;;;;;;;;;27.50;99.90;;;;;;5096418;28;19916;-72
2023/06/22 09:36:32;;;;;;;;;;;27.60;99.90;;;;;;5096741;28;19943;-72
2023/06/22 09:38:58;;;;;;;;;;;27.60;99.90;;;;;;5096401;28;20003;-69
2023/06/22 09:41:24;;;;;;;;;;;27.70;99.90;;;;;;5096398;28;20404;-69
2023/06/22 09:43:50;;;;;;;;;;;27.80;99.90;;;;;;5096703;28;20016;-69
2023/06/22 09:46:16;;;;;;;;;;;27.80;99.90;;;;;;5096320;28;20386;-69
2023/06/22 09:48:42;;;;;;;;;;;27.90;99.90;;;;;;5096612;28;19931;-69
2023/06/22 09:51:07;;;;;;;;;;;28.00;99.90;;;;;;5096297;28;20357;-69
2023/06/22 09:53:34;;;;;;;;;;;28.00;99.90;;;;;;5096128;28;19919;-69
2023/06/22 09:56:00;;;;;;;;;;;28.00;99.90;;;;;;5096162;28;19991;-69
2023/06/22 09:58:26;;;;;;;;;;;27.90;99.90;;;;;;5096511;28;19944;-69
2023/06/22 10:00:52;;;;;;;;;;;27.90;99.90;;;;;;5096907;28;20369;-69
2023/06/22 10:03:18;;;;;;;;;;;27.90;99.90;;;;;;5096919;28;19939;-69
2023/06/22 10:05:43;;;;;;;;;;;27.90;99.90;;;;;;5097196;28;19919;-69
2023/06/22 10:08:10;;;;;;;;;;;27.90;99.90;;;;;;5096929;28;20266;-69
2023/06/22 10:10:35;;;;;;;;;;;27.80;99.90;;;;;;5096742;28;19913;-69
2023/06/22 10:13:09;;;;;;;;;;;27.70;99.90;;;;;;5096617;28;20285;-69
2023/06/22 10:15:35;;;;;;;;;;;27.60;99.90;;;;;;5096199;28;19912;-70
2023/06/22 10:18:00;;;;;;;;;;;27.60;99.90;;;;;;5095625;28;20258;-70
2023/06/22 10:20:26;;;;;;;;;;;27.50;99.90;;;;;;5094627;28;19913;-70
2023/06/22 10:22:51;;;;;;;;;;;27.50;99.90;;;;;;5095950;28;19913;-69
2023/06/22 10:25:17;;;;;;;;;;;27.50;99.90;;;;;;5095559;28;19913;-69
2023/06/22 10:27:43;;;;;;;;;;;27.50;99.90;;;;;;5096151;28;19919;-69
2023/06/22 10:30:09;;;;;;;;;;;27.50;99.90;;;;;;5095628;28;20415;-69
2023/06/22 10:32:36;;;;;;;;;;;27.60;99.90;;;;;;5095492;28;19912;-70
2023/06/22 10:35:02;;;;;;;;;;;27.70;99.90;;;;;;5095956;28;19923;-69
2023/06/22 10:37:27;;;;;;;;;;;27.80;99.60;;;;;;5095721;28;19916;-69
2023/06/22 10:39:53;;;;;;;;;;;28.10;99.20;;;;;;5094238;28;20323;-69
2023/06/22 10:42:18;;;;;;;;;;;28.40;98.00;;;;;;5095295;28;19912;-69
2023/06/22 10:44:44;;;;;;;;;;;28.50;96.80;;;;;;5095463;28;20022;-69
2023/06/22 10:47:11;;;;;;;;;;;28.70;96.50;;;;;;5095285;28;19924;-70
2023/06/22 10:49:39;;;;;;;;;;;28.90;96.20;;;;;;5095197;28;19992;-69
2023/06/22 10:52:08;;;;;;;;;;;29.00;97.80;;;;;;5095058;28;19912;-69
2023/06/22 10:54:34;;;;;;;;;;;29.10;96.20;;;;;;5095015;28;19999;-69
2023/06/22 10:57:00;;;;;;;;;;;29.30;99.30;;;;;;5094868;28;19973;-70
2023/06/22 10:59:27;;;;;;;;;;;29.50;99.80;;;;;;5094965;28;19916;-70
2023/06/22 11:01:52;;;;;;;;;;;29.70;99.00;;;;;;5094983;28;20365;-70
2023/06/22 11:04:18;;;;;;;;;;;29.80;96.50;;;;;;5093842;28;19973;-70
2023/06/22 11:06:44;;;;;;;;;;;30.00;95.10;;;;;;5094842;28;19912;-70
2023/06/22 11:09:09;;;;;;;;;;;30.10;96.70;;;;;;5093900;28;19965;-70
2023/06/22 11:11:35;;;;;;;;;;;30.30;96.60;;;;;;5094743;28;19948;-70
2023/06/22 11:14:00;;;;;;;;;;;30.50;95.30;;;;;;5094764;28;19971;-70
2023/06/22 11:16:26;;;;;;;;;;;30.70;94.80;;;;;;5094679;28;19908;-70
2023/06/22 11:18:51;;;;;;;;;;;30.90;94.80;;;;;;5094707;28;19912;-70
2023/06/22 11:21:17;;;;;;;;;;;30.90;94.30;;;;;;5094830;28;19908;-70
2023/06/22 11:23:42;;;;;;;;;;;30.90;93.30;;;;;;5094466;28;19912;-70
2023/06/22 11:26:08;;;;;;;;;;;31.10;94.80;;;;;;5094861;28;19908;-70
2023/06/22 11:28:33;;;;;;;;;;;31.20;93.70;;;;;;5095028;28;19919;-70
2023/06/22 11:30:59;;;;;;;;;;;31.40;94.50;;;;;;5093961;28;19916;-70
2023/06/22 11:33:25;;;;;;;;;;;31.40;91.40;;;;;;5094553;28;19915;-70
2023/06/22 11:35:50;;;;;;;;;;;31.50;92.00;;;;;;5093010;28;19916;-70
2023/06/22 11:38:16;;;;;;;;;;;31.50;90.10;;;;;;5094342;28;19912;-70
2023/06/22 11:40:42;;;;;;;;;;;31.50;90.40;;;;;;5094276;28;20275;-70
2023/06/22 11:43:07;;;;;;;;;;;31.50;90.50;;;;;;5094211;28;19908;-70
2023/06/22 11:45:33;;;;;;;;;;;31.50;91.50;;;;;;5092799;28;19915;-70
2023/06/22 11:47:58;;;;;;;;;;;31.70;92.40;;;;;;5094152;28;19912;-70
2023/06/22 11:50:24;;;;;;;;;;;31.80;92.20;;;;;;5111259;28;19912;-70
2023/06/22 11:52:50;;;;;;;;;;;32.00;93.10;;;;;;5114512;28;19947;-70
2023/06/22 11:55:16;;;;;;;;;;;32.10;91.20;;;;;;5113597;28;20422;-70
2023/06/22 11:57:54;;;;;;;;;;;32.10;90.20;;;;;;5114597;28;19915;-70
2023/06/22 12:00:20;;;;;;;;;;;32.20;91.00;;;;;;5114378;28;19908;-70
2023/06/22 12:02:46;;;;;;;;;;;32.20;91.10;;;;;;5113188;28;19990;-70
2023/06/22 12:05:12;;;;;;;;;;;32.40;90.60;;;;;;5114222;28;19989;-70
2023/06/22 12:07:37;;;;;;;;;;;32.50;88.70;;;;;;5114559;28;19912;-70
2023/06/22 12:10:03;;;;;;;;;;;32.60;87.00;;;;;;5113033;28;19907;-70
2023/06/22 12:12:29;;;;;;;;;;;32.70;84.90;;;;;;5114487;28;19955;-70
2023/06/22 12:14:54;;;;;;;;;;;32.70;84.20;;;;;;5113990;28;19922;-70
2023/06/22 12:17:20;;;;;;;;;;;32.80;84.30;;;;;;5112982;28;19915;-70
2023/06/22 12:19:45;;;;;;;;;;;33.00;83.90;;;;;;5114176;28;20384;-70
2023/06/22 12:22:11;;;;;;;;;;;33.00;82.70;;;;;;5114114;28;19912;-70
2023/06/22 12:24:36;;;;;;;;;;;32.90;79.60;;;;;;5114097;28;19919;-70
2023/06/22 12:27:03;;;;;;;;;;;33.00;82.60;;;;;;5114002;28;19908;-70
2023/06/22 12:29:28;;;;;;;;;;;33.00;84.70;;;;;;5114103;28;19951;-70
2023/06/22 12:31:54;;;;;;;;;;;33.00;82.70;;;;;;5114432;28;19915;-70
2023/06/22 12:34:20;;;;;;;;;;;33.00;79.40;;;;;;5112589;28;19922;-71
2023/06/22 12:36:48;;;;;;;;;;;33.00;78.00;;;;;;5114153;28;20002;-71
2023/06/22 12:39:13;;;;;;;;;;;32.90;81.70;;;;;;5114253;28;20313;-71
2023/06/22 12:41:39;;;;;;;;;;;32.90;82.40;;;;;;5116055;28;19912;-71
2023/06/22 12:44:04;;;;;;;;;;;33.00;81.90;;;;;;5117949;28;20053;-71
2023/06/22 12:46:36;;;;;;;;;;;33.00;79.40;;;;;;5118256;28;19915;-71
2023/06/22 12:49:02;;;;;;;;;;;33.00;82.30;;;;;;5118470;28;19989;-71
2023/06/22 12:51:27;;;;;;;;;;;33.20;83.90;;;;;;5117839;28;20385;-71
2023/06/22 12:53:53;;;;;;;;;;;33.40;78.70;;;;;;5118271;28;20303;-71
2023/06/22 12:56:18;;;;;;;;;;;33.50;79.30;;;;;;5117745;28;19918;-71
2023/06/22 12:58:44;;;;;;;;;;;33.60;75.40;;;;;;5117712;28;19912;-71
2023/06/22 13:01:09;;;;;;;;;;;33.70;76.60;;;;;;5114613;28;19942;-70
2023/06/22 13:03:35;;;;;;;;;;;33.80;76.70;;;;;;5115866;28;19961;-70
2023/06/22 13:06:00;;;;;;;;;;;33.70;78.90;;;;;;5115842;28;20389;-71
2023/06/22 13:08:26;;;;;;;;;;;33.70;77.00;;;;;;5116375;28;19908;-71
2023/06/22 13:10:51;;;;;;;;;;;33.70;74.40;;;;;;5115206;28;25125;-71
2023/06/22 13:13:17;;;;;;;;;;;33.70;75.70;;;;;;5115596;28;20322;-71
2023/06/22 13:15:43;;;;;;;;;;;33.80;74.50;;;;;;5115603;28;20474;-70
2023/06/22 13:18:08;;;;;;;;;;;33.80;76.90;;;;;;5115595;27;20481;-70
2023/06/22 13:20:34;;;;;;;;;;;33.80;75.30;;;;;;5115423;28;20350;-71
2023/06/22 13:22:59;;;;;;;;;;;33.80;76.60;;;;;;5116602;28;19907;-71
2023/06/22 13:25:26;;;;;;;;;;;33.80;77.50;;;;;;5116657;28;20394;-70
2023/06/22 13:27:51;;;;;;;;;;;33.70;79.60;;;;;;5116714;28;20031;-70
2023/06/22 13:30:17;;;;;;;;;;;33.70;80.60;;;;;;5115798;28;20033;-70
2023/06/22 13:32:43;;;;;;;;;;;33.60;78.10;;;;;;5116571;28;19926;-70
2023/06/22 13:35:09;;;;;;;;;;;33.50;77.80;;;;;;5115032;28;20057;-70
2023/06/22 13:37:35;;;;;;;;;;;33.40;80.20;;;;;;5116977;28;20026;-70
2023/06/22 13:40:03;;;;;;;;;;;33.30;81.40;;;;;;5116162;28;20392;-70
2023/06/22 13:42:28;;;;;;;;;;;33.30;80.30;;;;;;5115696;28;20024;-70
2023/06/22 13:44:54;;;;;;;;;;;33.30;81.70;;;;;;5115743;28;20049;-70
2023/06/22 13:47:19;;;;;;;;;;;33.20;82.80;;;;;;5115873;28;20046;-70
2023/06/22 13:49:45;;;;;;;;;;;33.10;81.70;;;;;;5115822;28;20169;-70
2023/06/22 13:52:12;;;;;;;;;;;33.00;82.70;;;;;;5116148;28;20031;-70
2023/06/22 13:54:38;;;;;;;;;;;33.00;85.60;;;;;;5115964;28;20031;-70
2023/06/22 13:57:03;;;;;;;;;;;33.00;86.90;;;;;;5115251;28;20022;-70
2023/06/22 13:59:29;;;;;;;;;;;33.00;85.60;;;;;;5116082;28;20027;-70
2023/06/22 14:01:55;;;;;;;;;;;33.10;85.20;;;;;;5116055;28;20031;-70
2023/06/22 14:04:21;;;;;;;;;;;33.10;82.70;;;;;;5116174;28;20038;-70
2023/06/22 14:06:47;;;;;;;;;;;33.00;80.20;;;;;;5115974;27;20120;-70
2023/06/22 14:09:12;;;;;;;;;;;33.10;80.40;;;;;;5114631;28;20061;-70
2023/06/22 14:11:38;;;;;;;;;;;33.10;79.50;;;;;;5115630;28;20027;-70